Time;durP1;ratioP1;P1;durP2;ratioP2;P2;SDS_P1;SDS_P2;PMS_P1;PMS_P2;Temp;Humidity;BMP_temperature;BMP_pressure;BME280_temperature;BME280_humidity;BME280_pressure;Samples;Min_cycle;Max_cycle;Signal;HPM_P1;HPM_P2
2021/04/30 00:01:22;;;;;;;;;;;;;;;19.77;70.05;100246.31;5050910;28;974;-69
2021/04/30 00:03:48;;;;;;;;;;;;;;;19.77;70.07;100242.81;5050533;28;1243;-69
2021/04/30 00:06:14;;;;;;;;;;;;;;;19.75;69.88;100237.66;5050342;28;1078;-68
2021/04/30 00:08:41;;;;;;;;;;;;;;;19.75;70.17;100237.66;5050030;28;1224;-71
2021/04/30 00:11:07;;;;;;;;;;;;;;;19.75;70.16;100236.81;5051040;28;1056;-70
2021/04/30 00:13:37;;;;;;;;;;;;;;;19.76;69.73;100235.88;5049144;28;1914;-68
2021/04/30 00:16:04;;;;;;;;;;;;;;;19.75;69.66;100221.81;5048989;28;1462;-69
2021/04/30 00:18:31;;;;;;;;;;;;;;;19.75;69.80;100216.50;5050335;28;1232;-69
2021/04/30 00:20:58;;;;;;;;;;;;;;;19.74;70.07;100224.53;5048587;28;1296;-69
2021/04/30 00:23:26;;;;;;;;;;;;;;;19.74;70.14;100225.38;5049986;28;1221;-69
2021/04/30 00:25:56;;;;;;;;;;;;;;;19.74;70.09;100233.31;5032255;28;1181;-69
2021/04/30 00:28:23;;;;;;;;;;;;;;;19.74;69.83;100235.94;5049917;28;1233;-69
2021/04/30 00:30:50;;;;;;;;;;;;;;;19.73;70.46;100228.97;5048654;28;1175;-69
2021/04/30 00:33:17;;;;;;;;;;;;;;;19.74;70.26;100230.66;5049834;28;1910;-69
2021/04/30 00:35:44;;;;;;;;;;;;;;;19.73;70.14;100236.06;5048588;28;1063;-70
2021/04/30 00:38:11;;;;;;;;;;;;;;;19.73;70.01;100238.72;5048330;28;1315;-70
2021/04/30 00:40:40;;;;;;;;;;;;;;;19.73;70.06;100228.97;5049848;28;918;-70
2021/04/30 00:43:06;;;;;;;;;;;;;;;19.71;69.95;100228.25;5049963;28;1232;-70
2021/04/30 00:45:33;;;;;;;;;;;;;;;19.72;70.17;100229.94;5049163;28;1261;-69
2021/04/30 00:47:59;;;;;;;;;;;;;;;19.72;70.03;100219.38;5048397;28;1228;-71
2021/04/30 00:50:26;;;;;;;;;;;;;;;19.73;70.26;100222.88;5049956;28;1084;-71
2021/04/30 00:52:53;;;;;;;;;;;;;;;19.72;69.83;100221.16;5048390;28;1976;-71
2021/04/30 00:55:20;;;;;;;;;;;;;;;19.72;70.16;100213.22;5048343;28;910;-71
2021/04/30 00:57:49;;;;;;;;;;;;;;;19.72;69.99;100221.16;5049652;28;1251;-71
2021/04/30 01:00:16;;;;;;;;;;;;;;;19.71;70.18;100220.31;5049447;28;1343;-69
2021/04/30 01:02:42;;;;;;;;;;;;;;;19.74;70.61;100214.81;5048564;28;1244;-69
2021/04/30 01:05:09;;;;;;;;;;;;;;;19.71;70.09;100215.03;5049674;28;1133;-70
2021/04/30 01:07:36;;;;;;;;;;;;;;;19.72;70.19;100219.38;5049912;28;1315;-70
2021/04/30 01:10:03;;;;;;;;;;;;;;;19.71;69.83;100222.09;5048026;28;1405;-70
2021/04/30 01:12:29;;;;;;;;;;;;;;;19.70;69.93;100215.16;5049283;28;1910;-70
2021/04/30 01:14:56;;;;;;;;;;;;;;;19.68;69.81;100220.53;5049400;28;972;-70
2021/04/30 01:17:22;;;;;;;;;;;;;;;19.67;69.86;100208.25;5045968;28;1622;-70
2021/04/30 01:19:49;;;;;;;;;;;;;;;19.68;69.75;100209.09;5049055;28;1248;-69
2021/04/30 01:22:30;;;;;;;;;;;;;;;19.67;69.98;100202.16;5049020;28;1178;-69
2021/04/30 01:24:56;;;;;;;;;;;;;;;19.67;69.92;100196.84;5049297;28;815;-69
2021/04/30 01:27:22;;;;;;;;;;;;;;;19.60;69.99;100191.16;5049331;28;927;-69
2021/04/30 01:29:48;;;;;;;;;;;;;;;19.65;69.84;100191.66;5046996;28;1173;-69
2021/04/30 01:32:15;;;;;;;;;;;;;;;19.65;69.94;100183.75;5048749;28;1988;-69
2021/04/30 01:34:41;;;;;;;;;;;;;;;19.65;69.81;100186.38;5048880;28;1222;-69
2021/04/30 01:37:08;;;;;;;;;;;;;;;19.63;69.54;100191.78;5049309;28;1076;-69
2021/04/30 01:39:34;;;;;;;;;;;;;;;19.64;69.82;100187.31;5032695;28;1363;-69
2021/04/30 01:42:03;;;;;;;;;;;;;;;19.64;69.95;100187.31;5049257;28;930;-69
2021/04/30 01:44:30;;;;;;;;;;;;;;;19.64;69.91;100192.59;5048708;28;1240;-69
2021/04/30 01:46:58;;;;;;;;;;;;;;;19.64;69.93;100184.69;5048977;28;1005;-69
2021/04/30 01:49:25;;;;;;;;;;;;;;;19.63;69.84;100175.09;5049180;28;1241;-69
2021/04/30 01:51:51;;;;;;;;;;;;;;;19.63;69.97;100185.66;5049379;28;1094;-70
2021/04/30 01:54:18;;;;;;;;;;;;;;;19.60;69.90;100180.59;5048810;28;1909;-69
2021/04/30 01:56:44;;;;;;;;;;;;;;;19.62;69.94;100178.66;5049413;28;1051;-70
2021/04/30 01:59:11;;;;;;;;;;;;;;;19.62;69.92;100179.53;5049065;28;1727;-70
2021/04/30 02:01:37;;;;;;;;;;;;;;;19.62;70.00;100176.03;5048493;28;992;-70
2021/04/30 02:04:07;;;;;;;;;;;;;;;19.60;69.94;100183.22;5047443;28;1303;-70
2021/04/30 02:06:34;;;;;;;;;;;;;;;19.62;70.05;100179.53;5048969;28;1154;-70
2021/04/30 02:09:01;;;;;;;;;;;;;;;19.60;69.97;100176.16;5048576;28;1196;-70
2021/04/30 02:11:28;;;;;;;;;;;;;;;19.60;69.98;100175.31;5031098;28;1067;-70
2021/04/30 02:13:56;;;;;;;;;;;;;;;19.59;69.99;100178.88;5047115;28;1920;-70
2021/04/30 02:16:22;;;;;;;;;;;;;;;19.59;70.16;100179.72;5048917;28;1136;-70
2021/04/30 02:18:48;;;;;;;;;;;;;;;19.59;70.43;100178.88;5030469;28;1331;-70
2021/04/30 02:21:14;;;;;;;;;;;;;;;19.59;70.04;100178.88;5030405;28;1183;-70
2021/04/30 02:23:41;;;;;;;;;;;;;;;19.58;70.06;100172.75;5048602;28;1196;-70
2021/04/30 02:26:07;;;;;;;;;;;;;;;19.58;70.29;100172.75;5048817;28;1130;-70
2021/04/30 02:28:34;;;;;;;;;;;;;;;19.58;70.17;100182.47;5048437;28;1229;-70
2021/04/30 02:31:00;;;;;;;;;;;;;;;19.57;70.15;100176.34;5050724;28;883;-70
2021/04/30 02:33:26;;;;;;;;;;;;;;;19.58;70.25;100178.03;5053150;28;1910;-69
2021/04/30 02:35:53;;;;;;;;;;;;;;;19.57;70.15;100180.78;5034291;28;1110;-69
2021/04/30 02:38:20;;;;;;;;;;;;;;;19.56;70.21;100169.38;5034162;28;1197;-68
2021/04/30 02:40:47;;;;;;;;;;;;;;;19.57;70.27;100167.59;5052282;28;1140;-68
2021/04/30 02:43:14;;;;;;;;;;;;;;;19.57;70.15;100167.59;5052537;28;1323;-68
2021/04/30 02:45:42;;;;;;;;;;;;;;;19.55;70.26;100167.69;5034301;28;958;-68
2021/04/30 02:48:23;;;;;;;;;;;;;;;19.55;70.11;100157.09;5017571;28;1257;-68
2021/04/30 02:50:49;;;;;;;;;;;;;;;19.56;70.17;100168.53;5034124;28;1121;-67
2021/04/30 02:53:16;;;;;;;;;;;;;;;19.55;70.23;100166.81;5033851;28;1969;-68
2021/04/30 02:55:42;;;;;;;;;;;;;;;19.55;70.20;100169.47;5051343;28;901;-69
2021/04/30 02:58:09;;;;;;;;;;;;;;;19.55;70.32;100178.25;5051345;28;1233;-69
2021/04/30 03:00:35;;;;;;;;;;;;;;;19.55;70.22;100178.25;5033689;28;1224;-69
2021/04/30 03:03:02;;;;;;;;;;;;;;;19.55;70.11;100182.66;5033812;28;1213;-69
2021/04/30 03:05:29;;;;;;;;;;;;;;;19.54;70.37;100178.38;5033689;28;1074;-69
2021/04/30 03:07:55;;;;;;;;;;;;;;;19.55;70.32;100185.31;5051814;28;1221;-70
2021/04/30 03:10:23;;;;;;;;;;;;;;;19.54;70.35;100173.09;5033683;28;1302;-69
2021/04/30 03:12:51;;;;;;;;;;;;;;;19.53;70.23;100180.16;5033610;28;1918;-69
2021/04/30 03:15:17;;;;;;;;;;;;;;;19.54;70.23;100173.09;5051482;28;1201;-68
2021/04/30 03:17:44;;;;;;;;;;;;;;;19.53;70.23;100164.31;5051414;28;1283;-69
2021/04/30 03:20:11;;;;;;;;;;;;;;;19.53;70.41;100163.44;5051426;28;1143;-69
2021/04/30 03:22:38;;;;;;;;;;;;;;;19.53;70.22;100166.09;5033683;28;1360;-68
2021/04/30 03:25:05;;;;;;;;;;;;;;;19.52;70.41;100162.59;5052371;28;1049;-68
2021/04/30 03:27:32;;;;;;;;;;;;;;;19.53;70.32;100168.72;5037982;28;1220;-69
2021/04/30 03:29:58;;;;;;;;;;;;;;;19.48;70.43;100149.72;5056412;28;997;-69
2021/04/30 03:32:24;;;;;;;;;;;;;;;19.53;70.46;100174.03;5056250;28;1906;-69
2021/04/30 03:34:51;;;;;;;;;;;;;;;19.52;70.27;100172.31;5055839;28;1284;-70
2021/04/30 03:37:17;;;;;;;;;;;;;;;19.52;70.41;100175.81;5056508;28;890;-70
2021/04/30 03:39:44;;;;;;;;;;;;;;;19.53;70.35;100184.59;5051688;28;1217;-70
2021/04/30 03:42:10;;;;;;;;;;;;;;;19.52;70.41;100194.31;5033298;28;1325;-70
2021/04/30 03:44:36;;;;;;;;;;;;;;;19.52;70.33;100193.44;5050999;28;1323;-67
2021/04/30 03:47:02;;;;;;;;;;;;;;;19.52;70.39;100196.94;5033103;28;1310;-70
2021/04/30 03:49:29;;;;;;;;;;;;;;;19.51;70.46;100194.44;5051163;28;1311;-69
2021/04/30 03:51:55;;;;;;;;;;;;;;;19.52;70.52;100198.72;5051137;28;1008;-70
2021/04/30 03:54:22;;;;;;;;;;;;;;;19.51;70.36;100194.44;5050659;28;1906;-67
2021/04/30 03:56:48;;;;;;;;;;;;;;;19.51;70.34;100197.06;5050815;28;1001;-70
2021/04/30 03:59:14;;;;;;;;;;;;;;;19.51;70.53;100202.34;5032533;28;1487;-71
2021/04/30 04:01:40;;;;;;;;;;;;;;;19.50;70.47;100201.50;5050727;28;827;-70
2021/04/30 04:04:07;;;;;;;;;;;;;;;19.51;70.42;100192.63;5032957;28;1323;-70
2021/04/30 04:06:33;;;;;;;;;;;;;;;19.50;70.37;100182.16;5050848;28;1043;-69
2021/04/30 04:08:59;;;;;;;;;;;;;;;19.49;70.34;100178.66;5031965;28;1258;-69
2021/04/30 04:11:26;;;;;;;;;;;;;;;19.51;70.42;100181.22;5050120;28;1152;-70
2021/04/30 04:13:52;;;;;;;;;;;;;;;19.50;70.46;100184.78;5050630;28;2000;-70
2021/04/30 04:16:20;;;;;;;;;;;;;;;19.51;70.60;100181.22;5050560;28;899;-70
2021/04/30 04:18:46;;;;;;;;;;;;;;;19.52;70.26;100188.16;5050108;28;1543;-69
2021/04/30 04:21:13;;;;;;;;;;;;;;;19.52;70.59;100194.31;5050100;28;1516;-69
2021/04/30 04:23:40;;;;;;;;;;;;;;;19.51;70.41;100197.06;5050094;28;1272;-69
2021/04/30 04:26:06;;;;;;;;;;;;;;;19.49;70.51;100199.78;5050636;28;898;-70
2021/04/30 04:28:32;;;;;;;;;;;;;;;19.50;70.55;100205.94;5050380;28;1357;-69
2021/04/30 04:30:59;;;;;;;;;;;;;;;19.51;70.54;100202.34;5050254;28;884;-69
2021/04/30 04:33:25;;;;;;;;;;;;;;;19.49;70.62;100201.59;5049810;28;2005;-69
2021/04/30 04:35:51;;;;;;;;;;;;;;;19.50;70.47;100205.94;5050546;28;1185;-69
2021/04/30 04:38:18;;;;;;;;;;;;;;;19.51;70.69;100199.72;5039391;28;1551;-69
2021/04/30 04:40:45;;;;;;;;;;;;;;;19.49;70.53;100198.94;5049958;28;1698;-69
2021/04/30 04:43:12;;;;;;;;;;;;;;;19.49;70.55;100199.78;5050215;28;1321;-69
2021/04/30 04:45:39;;;;;;;;;;;;;;;19.49;70.47;100191.88;5032415;28;1069;-69
2021/04/30 04:48:05;;;;;;;;;;;;;;;19.48;70.49;100190.19;5049900;28;1308;-69
2021/04/30 04:50:31;;;;;;;;;;;;;;;19.48;70.61;100187.56;5049719;28;1026;-69
2021/04/30 04:53:18;;;;;;;;;;;;;;;19.49;70.39;100194.50;5047674;28;1963;-69
2021/04/30 04:55:44;;;;;;;;;;;;;;;19.49;70.40;100193.66;5049116;28;1033;-69
2021/04/30 04:58:10;;;;;;;;;;;;;;;19.48;70.42;100194.63;5031741;28;1217;-68
2021/04/30 05:00:36;;;;;;;;;;;;;;;19.49;70.46;100198.94;5028401;28;1546;-67
2021/04/30 05:03:03;;;;;;;;;;;;;;;19.52;70.75;100202.22;5028269;28;1508;-68
2021/04/30 05:05:29;;;;;;;;;;;;;;;19.49;70.52;100204.22;5029638;28;1140;-65
2021/04/30 05:07:56;;;;;;;;;;;;;;;19.48;70.48;100211.34;5029649;28;1217;-66
2021/04/30 05:10:22;;;;;;;;;;;;;;;19.51;70.56;100219.06;5028959;28;1455;-66
2021/04/30 05:12:48;;;;;;;;;;;;;;;19.52;70.61;100210.16;5029263;28;1993;-66
2021/04/30 05:15:15;;;;;;;;;;;;;;;19.54;70.60;100210.06;5029243;28;1150;-66
2021/04/30 05:17:43;;;;;;;;;;;;;;;19.56;70.82;100208.16;5029647;28;1237;-67
2021/04/30 05:20:11;;;;;;;;;;;;;;;19.53;70.59;100206.56;5029625;28;1040;-67
2021/04/30 05:22:40;;;;;;;;;;;;;;;19.55;70.51;100214.38;5023381;28;1551;-68
2021/04/30 05:25:07;;;;;;;;;;;;;;;19.54;71.07;100218.00;5024844;28;1132;-68
2021/04/30 05:27:33;;;;;;;;;;;;;;;19.55;70.65;100224.94;5028282;28;1229;-67
2021/04/30 05:30:00;;;;;;;;;;;;;;;19.56;70.93;100231.94;5026653;28;1396;-67
2021/04/30 05:32:27;;;;;;;;;;;;;;;19.54;70.69;100231.19;5028430;28;1931;-68
2021/04/30 05:34:56;;;;;;;;;;;;;;;19.55;70.86;100232.88;5014858;28;1435;-67
2021/04/30 05:37:22;;;;;;;;;;;;;;;19.57;71.22;100233.63;5021831;28;1480;-68
2021/04/30 05:39:49;;;;;;;;;;;;;;;19.67;70.88;100247.88;5022053;28;1308;-66
2021/04/30 05:42:15;;;;;;;;;;;;;;;19.64;70.81;100261.31;5028158;28;1229;-67
2021/04/30 05:44:44;;;;;;;;;;;;;;;19.59;70.96;100264.28;5028040;28;1271;-67
2021/04/30 05:47:10;;;;;;;;;;;;;;;19.57;70.61;100268.81;5028280;28;1172;-66
2021/04/30 05:49:37;;;;;;;;;;;;;;;19.56;71.10;100261.00;5024344;28;1552;-67
2021/04/30 05:52:04;;;;;;;;;;;;;;;19.58;70.97;100267.00;5026707;28;1151;-69
2021/04/30 05:54:31;;;;;;;;;;;;;;;19.67;71.27;100250.53;5026000;28;1927;-67
2021/04/30 05:56:57;;;;;;;;;;;;;;;19.71;71.25;100238.81;5027594;28;1007;-67
2021/04/30 05:59:24;;;;;;;;;;;;;;;19.70;71.84;100249.50;5034465;28;1244;-65
2021/04/30 06:01:50;;;;;;;;;;;;;;;19.75;71.57;100248.22;5029963;28;1560;-65
2021/04/30 06:04:17;;;;;;;;;;;;;;;19.84;70.88;100252.03;5047347;28;1272;-68
2021/04/30 06:06:49;;;;;;;;;;;;;;;19.78;71.28;100253.31;5030994;28;1095;-73
2021/04/30 06:09:18;;;;;;;;;;;;;;;19.73;71.42;100259.84;5051570;28;1350;-70
2021/04/30 06:11:44;;;;;;;;;;;;;;;19.72;71.07;100268.72;5051947;28;1177;-71
2021/04/30 06:14:10;;;;;;;;;;;;;;;19.77;71.96;100261.31;5051088;28;1914;-70
2021/04/30 06:16:37;;;;;;;;;;;;;;;19.79;71.49;100267.38;5050725;28;1180;-73
2021/04/30 06:19:04;;;;;;;;;;;;;;;19.79;71.51;100268.19;5052384;28;1228;-70
2021/04/30 06:21:30;;;;;;;;;;;;;;;19.77;71.43;100270.09;5050408;28;1171;-66
2021/04/30 06:23:57;;;;;;;;;;;;;;;19.80;71.41;100267.25;5052065;28;1248;-70
2021/04/30 06:26:23;;;;;;;;;;;;;;;19.75;71.38;100264.09;5052537;28;937;-72
2021/04/30 06:28:49;;;;;;;;;;;;;;;19.82;71.85;100277.72;5051538;28;1185;-62
2021/04/30 06:31:16;;;;;;;;;;;;;;;19.81;71.48;100274.22;5051575;28;946;-69
2021/04/30 06:33:43;;;;;;;;;;;;;;;19.81;71.57;100282.16;5051654;28;2031;-69
2021/04/30 06:36:10;;;;;;;;;;;;;;;19.75;71.36;100284.38;5016185;28;1228;-69
2021/04/30 06:38:36;;;;;;;;;;;;;;;19.70;71.41;100276.75;5033138;28;1311;-69
2021/04/30 06:41:04;;;;;;;;;;;;;;;19.66;71.29;100280.56;5052366;28;999;-69
2021/04/30 06:43:30;;;;;;;;;;;;;;;19.64;71.06;100277.16;5051737;28;1280;-68
2021/04/30 06:45:57;;;;;;;;;;;;;;;19.66;71.73;100271.78;5032163;28;1848;-69
2021/04/30 06:48:23;;;;;;;;;;;;;;;19.68;71.46;100283.09;5050172;28;1371;-69
2021/04/30 06:50:50;;;;;;;;;;;;;;;19.70;72.20;100284.66;5045349;28;1305;-68
2021/04/30 06:53:16;;;;;;;;;;;;;;;19.69;72.80;100280.34;5012518;28;1922;-71
2021/04/30 06:55:43;;;;;;;;;;;;;;;19.69;73.25;100277.72;5048347;28;1226;-69
2021/04/30 06:58:09;;;;;;;;;;;;;;;19.69;73.11;100279.50;5050298;28;1213;-70
2021/04/30 07:00:39;;;;;;;;;;;;;;;19.69;74.16;100269.78;5050636;28;1629;-68
2021/04/30 07:03:06;;;;;;;;;;;;;;;19.68;74.65;100262.81;5050351;28;1351;-69
2021/04/30 07:05:44;;;;;;;;;;;;;;;19.68;74.45;100246.94;5032269;28;1402;-68
2021/04/30 07:08:10;;;;;;;;;;;;;;;19.69;74.33;100246.00;5015821;28;1241;-69
2021/04/30 07:10:42;;;;;;;;;;;;;;;19.70;74.49;100252.13;5032504;28;1034;-70
2021/04/30 07:13:10;;;;;;;;;;;;;;;19.70;74.37;100250.31;5050467;28;1989;-68
2021/04/30 07:15:36;;;;;;;;;;;;;;;19.69;73.97;100251.28;5050728;28;1053;-68
2021/04/30 07:18:03;;;;;;;;;;;;;;;19.70;73.93;100249.50;5049623;28;1323;-68
2021/04/30 07:20:30;;;;;;;;;;;;;;;19.71;73.76;100254.66;5032034;28;1238;-68
2021/04/30 07:22:57;;;;;;;;;;;;;;;19.73;73.87;100244.81;5048896;28;1339;-69
2021/04/30 07:25:24;;;;;;;;;;;;;;;19.78;73.36;100232.16;5053063;28;1191;-69
2021/04/30 07:27:50;;;;;;;;;;;;;;;19.82;74.10;100228.34;5052760;28;1318;-68
2021/04/30 07:30:16;;;;;;;;;;;;;;;19.87;73.86;100226.22;5071029;28;1214;-68
2021/04/30 07:32:43;;;;;;;;;;;;;;;19.76;73.12;100241.16;5055679;28;1989;-69
2021/04/30 07:35:18;;;;;;;;;;;;;;;19.72;73.58;100240.50;5048323;28;1142;-68
2021/04/30 07:37:44;;;;;;;;;;;;;;;19.70;72.97;100239.75;5050997;28;1237;-68
2021/04/30 07:40:11;;;;;;;;;;;;;;;19.67;72.78;100224.09;5033177;28;1054;-69
2021/04/30 07:42:37;;;;;;;;;;;;;;;19.64;72.75;100226.97;5051070;28;1232;-68
2021/04/30 07:45:04;;;;;;;;;;;;;;;19.64;72.82;100233.09;5037502;28;1312;-69
2021/04/30 07:47:31;;;;;;;;;;;;;;;19.64;72.70;100226.97;5050714;28;1173;-68
2021/04/30 07:49:58;;;;;;;;;;;;;;;19.64;72.61;100229.59;5050847;28;853;-69
2021/04/30 07:52:24;;;;;;;;;;;;;;;19.63;72.49;100228.78;5049319;28;1271;-68
2021/04/30 07:54:50;;;;;;;;;;;;;;;19.60;72.42;100228.13;5050675;28;1985;-68
2021/04/30 07:57:17;;;;;;;;;;;;;;;19.60;72.48;100221.06;5051091;28;1003;-68
2021/04/30 07:59:43;;;;;;;;;;;;;;;19.60;72.35;100210.50;5050156;28;1212;-69
2021/04/30 08:02:10;;;;;;;;;;;;;;;19.60;72.37;100220.22;5032478;28;1284;-67
2021/04/30 08:04:37;;;;;;;;;;;;;;;19.60;72.37;100222.84;5050273;28;1318;-67
2021/04/30 08:07:03;;;;;;;;;;;;;;;19.59;72.46;100229.94;5050923;28;1155;-68
2021/04/30 08:09:29;;;;;;;;;;;;;;;19.52;72.32;100215.44;5032231;28;1492;-67
2021/04/30 08:12:16;;;;;;;;;;;;;;;19.59;72.20;100223.78;5050679;28;1309;-67
2021/04/30 08:14:44;;;;;;;;;;;;;;;19.60;72.06;100217.56;5050068;28;1914;-67
2021/04/30 08:17:10;;;;;;;;;;;;;;;19.59;72.14;100219.34;5015692;28;1534;-68
2021/04/30 08:19:37;;;;;;;;;;;;;;;19.59;72.02;100226.44;5050229;28;1217;-68
2021/04/30 08:22:05;;;;;;;;;;;;;;;19.59;72.21;100234.38;5050605;28;1299;-68
2021/04/30 08:24:32;;;;;;;;;;;;;;;19.59;71.93;100235.22;5032316;28;1333;-67
2021/04/30 08:26:59;;;;;;;;;;;;;;;19.60;71.76;100233.41;5049908;28;1016;-67
2021/04/30 08:29:25;;;;;;;;;;;;;;;19.59;71.74;100234.38;5048869;28;1232;-67
2021/04/30 08:31:51;;;;;;;;;;;;;;;19.58;71.69;100232.66;5050470;28;1049;-67
2021/04/30 08:34:18;;;;;;;;;;;;;;;19.58;71.86;100224.72;5049602;28;1906;-67
2021/04/30 08:37:04;;;;;;;;;;;;;;;19.58;71.74;100220.31;5050272;28;968;-68
2021/04/30 08:39:30;;;;;;;;;;;;;;;19.59;71.61;100231.72;5048746;28;1233;-67
2021/04/30 08:41:57;;;;;;;;;;;;;;;19.58;71.63;100224.72;5051192;28;1034;-68
2021/04/30 08:44:24;;;;;;;;;;;;;;;19.58;71.65;100227.38;5017366;28;1312;-68
2021/04/30 08:46:50;;;;;;;;;;;;;;;19.58;71.45;100233.50;5050555;28;1112;-67
2021/04/30 08:49:17;;;;;;;;;;;;;;;19.59;71.51;100239.66;5049487;28;1210;-67
2021/04/30 08:51:43;;;;;;;;;;;;;;;19.59;71.43;100223.78;5048245;28;1273;-67
2021/04/30 08:54:10;;;;;;;;;;;;;;;19.58;71.45;100220.31;5031254;28;1906;-68
2021/04/30 08:56:44;;;;;;;;;;;;;;;19.58;71.16;100224.72;5031666;28;1013;-68
2021/04/30 08:59:14;;;;;;;;;;;;;;;19.57;71.22;100245.06;5049262;28;1240;-68
2021/04/30 09:01:40;;;;;;;;;;;;;;;19.58;71.13;100243.22;5049688;28;1060;-68
2021/04/30 09:04:08;;;;;;;;;;;;;;;19.59;71.29;100243.13;5031304;28;1240;-68
2021/04/30 09:06:38;;;;;;;;;;;;;;;19.58;71.27;100249.38;5049462;28;945;-68
2021/04/30 09:09:07;;;;;;;;;;;;;;;19.59;71.11;100247.56;5047837;28;1232;-68
2021/04/30 09:11:41;;;;;;;;;;;;;;;19.57;71.18;100260.06;5031403;28;1041;-68
2021/04/30 09:14:23;;;;;;;;;;;;;;;19.58;71.21;100262.56;5049196;28;1930;-68
2021/04/30 09:17:00;;;;;;;;;;;;;;;19.58;71.26;100267.00;5047746;28;1148;-68
2021/04/30 09:19:50;;;;;;;;;;;;;;;19.61;71.22;100264.16;5031039;28;1225;-68
2021/04/30 09:22:21;;;;;;;;;;;;;;;19.60;71.15;100275.69;5049484;28;1192;-67
2021/04/30 09:24:52;;;;;;;;;;;;;;;19.62;71.19;100268.50;5048993;28;1376;-68
2021/04/30 09:27:29;;;;;;;;;;;;;;;19.61;71.21;100262.38;5048496;28;1252;-68
2021/04/30 09:30:14;;;;;;;;;;;;;;;19.61;70.96;100262.38;5048834;28;914;-68
2021/04/30 09:32:59;;;;;;;;;;;;;;;19.62;71.01;100260.56;5030453;28;1398;-68
2021/04/30 09:35:29;;;;;;;;;;;;;;;19.60;70.93;100252.78;5048599;28;1054;-67
2021/04/30 09:37:57;;;;;;;;;;;;;;;19.62;71.16;100258.78;5030924;28;1420;-67
2021/04/30 09:40:33;;;;;;;;;;;;;;;19.62;71.00;100263.22;5048812;28;1113;-67
2021/04/30 09:43:02;;;;;;;;;;;;;;;19.61;70.80;100253.59;5048447;28;1272;-67
2021/04/30 09:45:28;;;;;;;;;;;;;;;19.60;71.00;100259.84;5030442;28;1063;-67
2021/04/30 09:47:58;;;;;;;;;;;;;;;19.61;70.96;100262.38;5014151;28;1317;-66
2021/04/30 09:50:27;;;;;;;;;;;;;;;19.61;70.82;100258.88;5048653;28;1058;-67
2021/04/30 09:53:10;;;;;;;;;;;;;;;19.61;70.77;100256.22;5030465;28;1228;-68
2021/04/30 09:55:39;;;;;;;;;;;;;;;19.60;70.94;100242.19;5030791;28;1092;-68
2021/04/30 09:58:14;;;;;;;;;;;;;;;19.60;70.98;100246.63;5048256;28;1240;-68
